createdAt,value
2015-11-22T20:15:25.607Z,98228
2015-11-22T20:15:38.028Z,98233
2015-11-22T20:15:50.091Z,98228
2015-11-22T20:16:02.091Z,98225
2015-11-22T20:16:14.437Z,98225
2015-11-22T20:16:26.952Z,98219
2015-11-22T20:16:39.749Z,98219
2015-11-22T20:16:51.874Z,98228
2015-11-22T20:17:03.999Z,98236
2015-11-22T20:17:16.190Z,98228
2015-11-22T20:17:28.752Z,98231
2015-11-22T20:17:41.362Z,98228
2015-11-22T20:17:54.533Z,98228
2015-11-22T20:18:07.143Z,98225
2015-11-22T20:18:19.646Z,98219
2015-11-22T20:18:31.724Z,98233
2015-11-22T20:18:43.693Z,98225
2015-11-22T20:18:55.911Z,98227
2015-11-22T20:19:08.849Z,98230
2015-11-22T20:19:25.023Z,98219
2015-11-22T20:19:37.460Z,98225
2015-11-22T20:19:52.492Z,98230
2015-11-22T20:20:04.601Z,98227
2015-11-22T20:20:16.698Z,98238
2015-11-22T20:20:29.479Z,98222
2015-11-22T20:20:41.776Z,98233
2015-11-22T20:20:54.354Z,98224
2015-11-22T20:21:06.401Z,98233
2015-11-22T20:21:18.341Z,98233
2015-11-22T20:21:30.451Z,98227
2015-11-22T20:21:42.482Z,98227
2015-11-22T20:21:58.466Z,98235
2015-11-22T20:22:10.966Z,98235
2015-11-22T20:22:23.969Z,98241
2015-11-22T20:22:41.985Z,98238
2015-11-22T20:22:53.985Z,98249
2015-11-22T20:23:06.532Z,98230
2015-11-22T20:23:19.534Z,98227
2015-11-22T20:23:31.518Z,98232
2015-11-22T20:23:43.534Z,98230
2015-11-22T20:23:55.706Z,98241
2015-11-22T20:24:07.831Z,98241
2015-11-22T20:24:20.239Z,98243
2015-11-22T20:24:32.848Z,98227
2015-11-22T20:24:44.833Z,98238
2015-11-22T20:24:57.973Z,98243
2015-11-22T20:25:10.583Z,98235
2015-11-22T20:25:22.553Z,98232
2015-11-22T20:25:34.585Z,98227
2015-11-22T20:25:47.132Z,98243
2015-11-22T20:25:59.163Z,98240
2015-11-22T20:26:12.444Z,98237
2015-11-22T20:26:25.011Z,98240
2015-11-22T20:26:37.167Z,98237
2015-11-22T20:26:49.605Z,98240
2015-11-22T20:27:02.871Z,98243
2015-11-22T20:27:14.906Z,98240
2015-11-22T20:27:26.969Z,98240
2015-11-22T20:27:39.031Z,98257
2015-11-22T20:27:51.094Z,98254
2015-11-22T20:28:03.688Z,98246
2015-11-22T20:28:16.363Z,98243
2015-11-22T20:28:28.426Z,98248
2015-11-22T20:28:40.519Z,98237
2015-11-22T20:28:52.598Z,98246
2015-11-22T20:29:04.676Z,98251
2015-11-22T20:29:17.259Z,98251
2015-11-22T20:29:29.759Z,98243
2015-11-22T20:29:41.869Z,98243
2015-11-22T20:29:53.947Z,98246
2015-11-22T20:30:05.994Z,98251
2015-11-22T20:30:18.498Z,98254
2015-11-22T20:30:30.639Z,98243
2015-11-22T20:30:43.061Z,98251
2015-11-22T20:30:55.139Z,98251
2015-11-22T20:31:07.733Z,98246
2015-11-22T20:31:20.856Z,98246
2015-11-22T20:31:32.887Z,98251
2015-11-22T20:31:47.887Z,98248
2015-11-22T20:32:00.168Z,98259
2015-11-22T20:32:12.262Z,98248
2015-11-22T20:32:24.698Z,98251
2015-11-22T20:32:36.838Z,98251
2015-11-22T20:32:50.073Z,98257
2015-11-22T20:33:02.260Z,98251
2015-11-22T20:33:14.776Z,98265
2015-11-22T20:33:27.632Z,98240
2015-11-22T20:33:40.101Z,98251
2015-11-22T20:33:52.460Z,98251
2015-11-22T20:34:05.398Z,98248
2015-11-22T20:34:17.630Z,98257
2015-11-22T20:34:30.177Z,98248
2015-11-22T20:34:42.458Z,98254
2015-11-22T20:34:54.833Z,98243
2015-11-22T20:35:06.849Z,98251
2015-11-22T20:35:19.612Z,98246
2015-11-22T20:35:32.394Z,98259
2015-11-22T20:35:45.456Z,98254
2015-11-22T20:35:57.862Z,98259
2015-11-22T20:36:14.784Z,98248
2015-11-22T20:36:26.973Z,98251
2015-11-22T20:36:38.942Z,98248
2015-11-22T20:36:51.301Z,98240
2015-11-22T20:37:04.035Z,98254
2015-11-22T20:37:20.349Z,98262
2015-11-22T20:37:37.068Z,98251
2015-11-22T20:37:49.193Z,98245
2015-11-22T20:38:01.833Z,98256
2015-11-22T20:38:14.021Z,98256
2015-11-22T20:38:26.709Z,98254
2015-11-22T20:38:39.272Z,98256
2015-11-22T20:38:54.287Z,98251
2015-11-22T20:39:06.397Z,98251
2015-11-22T20:39:19.006Z,98259
2015-11-22T20:39:30.990Z,98251
2015-11-22T20:39:43.053Z,98265
2015-11-22T20:39:55.162Z,98254
2015-11-22T20:40:07.287Z,98248
2015-11-22T20:40:20.210Z,98248
2015-11-22T20:40:33.460Z,98256
2015-11-22T20:40:45.616Z,98245
2015-11-22T20:40:59.085Z,98242
2015-11-22T20:41:11.898Z,98256
2015-11-22T20:41:24.243Z,98245
2015-11-22T20:41:36.775Z,98259
2015-11-22T20:41:48.853Z,98254
2015-11-22T20:42:00.962Z,98248
2015-11-22T20:42:12.915Z,98245
2015-11-22T20:42:25.433Z,98254
2015-11-22T20:42:38.011Z,98257
2015-11-22T20:42:50.574Z,98259
2015-11-22T20:43:02.683Z,98248
2015-11-22T20:43:15.074Z,98251
2015-11-22T20:43:27.654Z,98254
2015-11-22T20:43:42.513Z,98251
2015-11-22T20:43:54.701Z,98262
2015-11-22T20:44:06.997Z,98259
2015-11-22T20:44:19.717Z,98254
2015-11-22T20:44:32.014Z,98259
2015-11-22T20:44:44.092Z,98256
2015-11-22T20:44:56.077Z,98248
2015-11-22T20:45:08.577Z,98251
2015-11-22T20:45:21.033Z,98259
2015-11-22T20:45:34.298Z,98262
2015-11-22T20:45:47.408Z,98251
2015-11-22T20:45:59.423Z,98259
2015-11-22T20:46:12.517Z,98257
2015-11-22T20:46:24.957Z,98254
2015-11-22T20:46:37.003Z,98262
2015-11-22T20:46:55.550Z,98254
2015-11-22T20:47:08.566Z,98251
2015-11-22T20:47:21.023Z,98262
2015-11-22T20:47:33.117Z,98251
2015-11-22T20:47:45.054Z,98259
2015-11-22T20:47:57.195Z,98256
2015-11-22T21:30:04.871Z,98288
2015-11-22T21:30:17.950Z,98293
2015-11-22T21:30:31.825Z,98288
2015-11-22T21:30:45.231Z,98288
2015-11-22T21:30:59.062Z,98291
2015-11-22T21:31:15.249Z,98288
2015-11-22T21:31:28.531Z,98285
2015-11-22T21:31:42.156Z,98285
2015-11-22T21:31:55.281Z,98291
2015-11-22T21:32:07.376Z,98291
2015-11-22T21:32:21.330Z,98282
2015-11-22T21:32:35.001Z,98285
2015-11-22T21:32:49.017Z,98288
2015-11-22T21:33:02.129Z,98293
2015-11-22T21:33:16.317Z,98294
2015-11-22T21:33:30.473Z,98291
2015-11-22T21:33:43.442Z,98299
2015-11-22T21:33:57.348Z,98291
2015-11-22T21:34:11.631Z,98305
